sensor_id;sensor_type;location;lat;lon;timestamp;pressure;altitude;pressure_sealevel;temperature;humidity
39443;BME280;25147;52.142;9.960;2023-11-22T00:01:35;101701.31;;;1.90;100.00
39443;BME280;25147;52.142;9.960;2023-11-22T00:04:03;101195.66;;;-0.98;100.00
39443;BME280;25147;52.142;9.960;2023-11-22T00:06:30;101321.94;;;-0.31;100.00
39443;BME280;25147;52.142;9.960;2023-11-22T00:08:59;101121.78;;;-1.43;100.00
39443;BME280;25147;52.142;9.960;2023-11-22T00:11:26;101718.56;;;1.70;100.00
39443;BME280;25147;52.142;9.960;2023-11-22T00:13:53;101464.03;;;0.22;100.00
39443;BME280;25147;52.142;9.960;2023-11-22T00:16:21;101190.53;;;-1.18;100.00
39443;BME280;25147;52.142;9.960;2023-11-22T00:18:49;101209.50;;;-1.14;100.00
39443;BME280;25147;52.142;9.960;2023-11-22T00:21:16;101557.19;;;0.72;100.00
39443;BME280;25147;52.142;9.960;2023-11-22T00:23:43;101281.19;;;-1.01;100.00
39443;BME280;25147;52.142;9.960;2023-11-22T00:26:15;101223.19;;;-1.15;100.00
39443;BME280;25147;52.142;9.960;2023-11-22T00:28:41;101495.78;;;0.42;100.00
39443;BME280;25147;52.142;9.960;2023-11-22T00:31:11;101294.72;;;-0.86;100.00
39443;BME280;25147;52.142;9.960;2023-11-22T00:33:40;101502.47;;;0.37;100.00
39443;BME280;25147;52.142;9.960;2023-11-22T00:36:07;101365.91;;;-0.46;100.00
39443;BME280;25147;52.142;9.960;2023-11-22T00:38:35;101262.94;;;-1.07;100.00
39443;BME280;25147;52.142;9.960;2023-11-22T00:41:03;101383.53;;;-0.14;100.00
39443;BME280;25147;52.142;9.960;2023-11-22T00:43:31;101309.94;;;-0.90;100.00
39443;BME280;25147;52.142;9.960;2023-11-22T00:45:58;101242.97;;;-1.32;100.00
39443;BME280;25147;52.142;9.960;2023-11-22T00:48:27;101698.25;;;1.57;100.00
39443;BME280;25147;52.142;9.960;2023-11-22T00:50:54;101271.53;;;-1.07;100.00
39443;BME280;25147;52.142;9.960;2023-11-22T00:53:21;101273.34;;;-1.04;100.00
39443;BME280;25147;52.142;9.960;2023-11-22T00:55:48;101248.53;;;-1.23;100.00
39443;BME280;25147;52.142;9.960;2023-11-22T00:58:15;101211.06;;;-1.37;100.00
39443;BME280;25147;52.142;9.960;2023-11-22T01:00:44;101626.03;;;0.95;100.00
39443;BME280;25147;52.142;9.960;2023-11-22T01:03:11;101246.88;;;-1.41;100.00
39443;BME280;25147;52.142;9.960;2023-11-22T01:05:38;101327.25;;;-0.86;100.00
39443;BME280;25147;52.142;9.960;2023-11-22T01:08:05;101387.25;;;-0.48;100.00
39443;BME280;25147;52.142;9.960;2023-11-22T01:10:32;101223.47;;;-1.47;100.00
39443;BME280;25147;52.142;9.960;2023-11-22T01:12:59;101640.00;;;0.79;100.00
39443;BME280;25147;52.142;9.960;2023-11-22T01:15:26;101560.50;;;0.29;100.00
39443;BME280;25147;52.142;9.960;2023-11-22T01:17:55;101234.31;;;-1.72;100.00
39443;BME280;25147;52.142;9.960;2023-11-22T01:20:23;101293.56;;;-1.49;100.00
39443;BME280;25147;52.142;9.960;2023-11-22T01:22:50;101748.63;;;1.28;100.00
39443;BME280;25147;52.142;9.960;2023-11-22T01:25:18;101308.31;;;-1.45;100.00
39443;BME280;25147;52.142;9.960;2023-11-22T01:27:45;101425.72;;;-0.69;100.00
39443;BME280;25147;52.142;9.960;2023-11-22T01:30:12;101385.03;;;-0.97;100.00
39443;BME280;25147;52.142;9.960;2023-11-22T01:32:40;101334.91;;;-1.25;100.00
39443;BME280;25147;52.142;9.960;2023-11-22T01:35:09;101266.25;;;-1.85;100.00
39443;BME280;25147;52.142;9.960;2023-11-22T01:37:36;101420.25;;;-0.95;100.00
39443;BME280;25147;52.142;9.960;2023-11-22T01:40:05;101667.09;;;0.52;100.00
39443;BME280;25147;52.142;9.960;2023-11-22T01:42:37;101304.06;;;-1.63;100.00
39443;BME280;25147;52.142;9.960;2023-11-22T01:45:06;101576.00;;;0.11;100.00
39443;BME280;25147;52.142;9.960;2023-11-22T01:47:34;101297.00;;;-1.49;100.00
39443;BME280;25147;52.142;9.960;2023-11-22T01:50:02;101429.84;;;-0.73;100.00
39443;BME280;25147;52.142;9.960;2023-11-22T01:52:32;101463.66;;;-0.46;100.00
39443;BME280;25147;52.142;9.960;2023-11-22T01:55:00;101742.94;;;1.15;100.00
39443;BME280;25147;52.142;9.960;2023-11-22T01:57:29;101655.78;;;0.48;100.00
39443;BME280;25147;52.142;9.960;2023-11-22T01:59:56;101479.34;;;-0.59;100.00
39443;BME280;25147;52.142;9.960;2023-11-22T02:02:23;101453.38;;;-0.83;100.00
39443;BME280;25147;52.142;9.960;2023-11-22T02:04:51;101217.28;;;-1.89;100.00
39443;BME280;25147;52.142;9.960;2023-11-22T02:07:18;101272.31;;;-1.65;100.00
39443;BME280;25147;52.142;9.960;2023-11-22T02:09:46;101313.09;;;-1.71;100.00
39443;BME280;25147;52.142;9.960;2023-11-22T02:12:15;101756.03;;;1.00;100.00
39443;BME280;25147;52.142;9.960;2023-11-22T02:14:42;101243.94;;;-2.04;100.00
39443;BME280;25147;52.142;9.960;2023-11-22T02:17:10;101614.06;;;-0.02;100.00
39443;BME280;25147;52.142;9.960;2023-11-22T02:19:37;101292.03;;;-1.64;100.00
39443;BME280;25147;52.142;9.960;2023-11-22T02:22:04;101367.81;;;-1.36;100.00
39443;BME280;25147;52.142;9.960;2023-11-22T02:24:32;101318.94;;;-1.55;100.00
39443;BME280;25147;52.142;9.960;2023-11-22T02:27:00;101289.84;;;-1.56;100.00
39443;BME280;25147;52.142;9.960;2023-11-22T02:29:27;101297.63;;;-1.72;100.00
39443;BME280;25147;52.142;9.960;2023-11-22T02:31:54;101237.63;;;-1.92;100.00
39443;BME280;25147;52.142;9.960;2023-11-22T02:34:21;101620.91;;;0.17;100.00
39443;BME280;25147;52.142;9.960;2023-11-22T02:36:49;101335.75;;;-1.62;100.00
39443;BME280;25147;52.142;9.960;2023-11-22T02:39:16;101676.47;;;0.50;100.00
39443;BME280;25147;52.142;9.960;2023-11-22T02:41:45;101309.56;;;-1.91;100.00
39443;BME280;25147;52.142;9.960;2023-11-22T02:44:14;101314.69;;;-1.91;100.00
39443;BME280;25147;52.142;9.960;2023-11-22T02:46:42;101343.66;;;-1.75;100.00
39443;BME280;25147;52.142;9.960;2023-11-22T02:49:10;101471.00;;;-0.91;100.00
39443;BME280;25147;52.142;9.960;2023-11-22T02:51:37;101516.44;;;-0.90;100.00
39443;BME280;25147;52.142;9.960;2023-11-22T02:54:04;101323.50;;;-2.20;100.00
39443;BME280;25147;52.142;9.960;2023-11-22T02:56:32;101257.47;;;-2.24;100.00
39443;BME280;25147;52.142;9.960;2023-11-22T02:59:01;101794.50;;;0.76;100.00
39443;BME280;25147;52.142;9.960;2023-11-22T03:01:28;101318.38;;;-2.20;100.00
39443;BME280;25147;52.142;9.960;2023-11-22T03:03:55;101294.72;;;-2.14;100.00
39443;BME280;25147;52.142;9.960;2023-11-22T03:06:22;101516.16;;;-0.96;100.00
39443;BME280;25147;52.142;9.960;2023-11-22T03:08:49;101350.59;;;-2.09;100.00
39443;BME280;25147;52.142;9.960;2023-11-22T03:11:17;101540.47;;;-1.07;100.00
39443;BME280;25147;52.142;9.960;2023-11-22T03:13:45;101550.00;;;-1.05;100.00
39443;BME280;25147;52.142;9.960;2023-11-22T03:16:13;101819.25;;;0.55;100.00
39443;BME280;25147;52.142;9.960;2023-11-22T03:18:40;101694.88;;;-0.34;100.00
39443;BME280;25147;52.142;9.960;2023-11-22T03:21:07;101361.66;;;-2.26;100.00
39443;BME280;25147;52.142;9.960;2023-11-22T03:23:35;101541.69;;;-1.17;100.00
39443;BME280;25147;52.142;9.960;2023-11-22T03:26:03;101575.22;;;-0.97;100.00
39443;BME280;25147;52.142;9.960;2023-11-22T03:28:32;101391.16;;;-2.18;100.00
39443;BME280;25147;52.142;9.960;2023-11-22T03:30:59;101401.81;;;-2.10;100.00
39443;BME280;25147;52.142;9.960;2023-11-22T03:33:31;101551.75;;;-1.22;100.00
39443;BME280;25147;52.142;9.960;2023-11-22T03:35:58;101326.22;;;-2.68;100.00
39443;BME280;25147;52.142;9.960;2023-11-22T03:38:26;101364.56;;;-2.36;100.00
39443;BME280;25147;52.142;9.960;2023-11-22T03:40:53;101773.00;;;0.03;100.00
39443;BME280;25147;52.142;9.960;2023-11-22T03:43:20;101363.47;;;-2.58;100.00
39443;BME280;25147;52.142;9.960;2023-11-22T03:45:48;101568.38;;;-1.31;100.00
39443;BME280;25147;52.142;9.960;2023-11-22T03:48:18;101565.97;;;-1.45;100.00
39443;BME280;25147;52.142;9.960;2023-11-22T03:50:49;101521.09;;;-1.69;100.00
39443;BME280;25147;52.142;9.960;2023-11-22T03:53:16;101617.09;;;-1.33;100.00
39443;BME280;25147;52.142;9.960;2023-11-22T03:55:44;101560.53;;;-1.51;100.00
39443;BME280;25147;52.142;9.960;2023-11-22T03:58:11;101394.38;;;-2.38;100.00
39443;BME280;25147;52.142;9.960;2023-11-22T04:00:38;101527.81;;;-1.71;100.00
39443;BME280;25147;52.142;9.960;2023-11-22T04:03:07;101681.78;;;-0.91;100.00
39443;BME280;25147;52.142;9.960;2023-11-22T04:05:34;101788.84;;;-0.24;100.00
39443;BME280;25147;52.142;9.960;2023-11-22T04:08:03;101640.38;;;-1.13;100.00
39443;BME280;25147;52.142;9.960;2023-11-22T04:10:30;101610.53;;;-1.28;100.00
39443;BME280;25147;52.142;9.960;2023-11-22T04:12:57;101659.09;;;-1.16;100.00
39443;BME280;25147;52.142;9.960;2023-11-22T04:15:24;101522.06;;;-2.00;100.00
39443;BME280;25147;52.142;9.960;2023-11-22T04:17:51;101860.84;;;0.09;100.00
39443;BME280;25147;52.142;9.960;2023-11-22T04:20:19;101668.88;;;-1.09;100.00
39443;BME280;25147;52.142;9.960;2023-11-22T04:22:47;101814.84;;;-0.36;100.00
39443;BME280;25147;52.142;9.960;2023-11-22T04:25:15;101382.03;;;-2.95;100.00
39443;BME280;25147;52.142;9.960;2023-11-22T04:27:43;101798.13;;;-0.44;100.00
39443;BME280;25147;52.142;9.960;2023-11-22T04:30:11;101571.47;;;-1.71;100.00
39443;BME280;25147;52.142;9.960;2023-11-22T04:32:39;101776.06;;;-0.57;100.00
39443;BME280;25147;52.142;9.960;2023-11-22T04:35:07;101386.34;;;-2.94;100.00
39443;BME280;25147;52.142;9.960;2023-11-22T04:37:35;101782.34;;;-0.68;100.00
39443;BME280;25147;52.142;9.960;2023-11-22T04:40:03;101624.09;;;-1.79;100.00
39443;BME280;25147;52.142;9.960;2023-11-22T04:42:34;101639.44;;;-1.65;100.00
39443;BME280;25147;52.142;9.960;2023-11-22T04:45:02;101884.63;;;-0.30;100.00
39443;BME280;25147;52.142;9.960;2023-11-22T04:47:29;101653.88;;;-1.67;100.00
39443;BME280;25147;52.142;9.960;2023-11-22T04:49:56;101611.84;;;-1.85;100.00
39443;BME280;25147;52.142;9.960;2023-11-22T04:52:23;101469.47;;;-2.89;100.00
39443;BME280;25147;52.142;9.960;2023-11-22T04:54:50;101541.53;;;-2.20;100.00
39443;BME280;25147;52.142;9.960;2023-11-22T04:57:17;101745.63;;;-0.98;100.00
39443;BME280;25147;52.142;9.960;2023-11-22T04:59:45;101935.03;;;-0.01;100.00
39443;BME280;25147;52.142;9.960;2023-11-22T05:02:12;101736.56;;;-1.08;100.00
39443;BME280;25147;52.142;9.960;2023-11-22T05:04:39;101604.19;;;-2.00;100.00
39443;BME280;25147;52.142;9.960;2023-11-22T05:07:08;101735.53;;;-1.28;100.00
39443;BME280;25147;52.142;9.960;2023-11-22T05:09:35;101900.63;;;-0.19;100.00
39443;BME280;25147;52.142;9.960;2023-11-22T05:12:02;101861.41;;;-0.48;100.00
39443;BME280;25147;52.142;9.960;2023-11-22T05:14:29;101934.63;;;-0.08;100.00
39443;BME280;25147;52.142;9.960;2023-11-22T05:16:57;101729.88;;;-1.37;100.00
39443;BME280;25147;52.142;9.960;2023-11-22T05:19:24;101533.66;;;-2.39;100.00
39443;BME280;25147;52.142;9.960;2023-11-22T05:21:51;101771.19;;;-1.02;100.00
39443;BME280;25147;52.142;9.960;2023-11-22T05:24:18;101770.88;;;-1.24;100.00
39443;BME280;25147;52.142;9.960;2023-11-22T05:26:45;101594.63;;;-2.03;100.00
39443;BME280;25147;52.142;9.960;2023-11-22T05:29:12;101467.25;;;-2.83;100.00
39443;BME280;25147;52.142;9.960;2023-11-22T05:31:39;101828.63;;;-1.01;100.00
39443;BME280;25147;52.142;9.960;2023-11-22T05:34:07;101508.22;;;-2.51;100.00
39443;BME280;25147;52.142;9.960;2023-11-22T05:36:34;101776.72;;;-1.10;100.00
39443;BME280;25147;52.142;9.960;2023-11-22T05:39:01;101453.38;;;-2.86;100.00
39443;BME280;25147;52.142;9.960;2023-11-22T05:41:30;101781.94;;;-1.09;100.00
39443;BME280;25147;52.142;9.960;2023-11-22T05:44:01;101431.63;;;-3.09;100.00
39443;BME280;25147;52.142;9.960;2023-11-22T05:46:29;101754.31;;;-1.29;100.00
39443;BME280;25147;52.142;9.960;2023-11-22T05:48:56;101709.53;;;-1.66;100.00
39443;BME280;25147;52.142;9.960;2023-11-22T05:51:27;101714.63;;;-1.51;100.00
39443;BME280;25147;52.142;9.960;2023-11-22T05:53:54;101739.44;;;-1.35;100.00
39443;BME280;25147;52.142;9.960;2023-11-22T05:56:22;101833.44;;;-0.91;100.00
39443;BME280;25147;52.142;9.960;2023-11-22T05:58:49;101663.09;;;-2.02;100.00
39443;BME280;25147;52.142;9.960;2023-11-22T06:01:16;101649.88;;;-2.09;100.00
39443;BME280;25147;52.142;9.960;2023-11-22T06:03:43;101762.56;;;-1.35;100.00
39443;BME280;25147;52.142;9.960;2023-11-22T06:06:12;101818.75;;;-1.25;100.00
39443;BME280;25147;52.142;9.960;2023-11-22T06:08:40;101886.94;;;-0.67;100.00
39443;BME280;25147;52.142;9.960;2023-11-22T06:11:08;101956.19;;;-0.39;100.00
39443;BME280;25147;52.142;9.960;2023-11-22T06:13:34;101818.84;;;-1.23;100.00
39443;BME280;25147;52.142;9.960;2023-11-22T06:16:02;101524.53;;;-2.97;100.00
39443;BME280;25147;52.142;9.960;2023-11-22T06:18:29;101518.91;;;-3.21;100.00
39443;BME280;25147;52.142;9.960;2023-11-22T06:20:56;101575.41;;;-3.03;100.00
39443;BME280;25147;52.142;9.960;2023-11-22T06:23:23;101526.56;;;-3.36;100.00
39443;BME280;25147;52.142;9.960;2023-11-22T06:25:51;101817.97;;;-1.55;100.00
39443;BME280;25147;52.142;9.960;2023-11-22T06:28:18;102005.97;;;-0.38;100.00
39443;BME280;25147;52.142;9.960;2023-11-22T06:30:45;101489.22;;;-3.62;100.00
39443;BME280;25147;52.142;9.960;2023-11-22T06:33:13;101723.38;;;-2.10;100.00
39443;BME280;25147;52.142;9.960;2023-11-22T06:35:40;101548.97;;;-3.32;100.00
39443;BME280;25147;52.142;9.960;2023-11-22T06:38:08;101548.91;;;-3.18;100.00
39443;BME280;25147;52.142;9.960;2023-11-22T06:40:35;101600.84;;;-2.76;100.00
39443;BME280;25147;52.142;9.960;2023-11-22T06:43:04;101700.66;;;-2.18;100.00
39443;BME280;25147;52.142;9.960;2023-11-22T06:45:31;101926.72;;;-0.93;100.00
39443;BME280;25147;52.142;9.960;2023-11-22T06:47:59;101538.56;;;-3.35;100.00
39443;BME280;25147;52.142;9.960;2023-11-22T06:50:26;101494.50;;;-3.44;100.00
39443;BME280;25147;52.142;9.960;2023-11-22T06:52:53;101514.56;;;-3.37;100.00
39443;BME280;25147;52.142;9.960;2023-11-22T06:55:20;101559.06;;;-3.20;100.00
39443;BME280;25147;52.142;9.960;2023-11-22T06:57:50;102009.72;;;-0.48;100.00
39443;BME280;25147;52.142;9.960;2023-11-22T07:00:20;101507.50;;;-3.26;100.00
39443;BME280;25147;52.142;9.960;2023-11-22T07:02:47;101957.22;;;-0.52;100.00
39443;BME280;25147;52.142;9.960;2023-11-22T07:05:15;101484.47;;;-3.41;100.00
39443;BME280;25147;52.142;9.960;2023-11-22T07:07:42;101504.31;;;-3.22;100.00
39443;BME280;25147;52.142;9.960;2023-11-22T07:10:10;101467.69;;;-3.51;100.00
39443;BME280;25147;52.142;9.960;2023-11-22T07:12:39;101507.50;;;-3.11;100.00
39443;BME280;25147;52.142;9.960;2023-11-22T07:15:09;101725.75;;;-1.98;100.00
39443;BME280;25147;52.142;9.960;2023-11-22T07:17:38;101873.84;;;-0.88;100.00
39443;BME280;25147;52.142;9.960;2023-11-22T07:20:09;101844.25;;;-1.13;100.00
39443;BME280;25147;52.142;9.960;2023-11-22T07:22:42;101677.06;;;-1.96;100.00
39443;BME280;25147;52.142;9.960;2023-11-22T07:25:09;101576.69;;;-2.65;100.00
39443;BME280;25147;52.142;9.960;2023-11-22T07:27:44;101491.63;;;-2.89;100.00
39443;BME280;25147;52.142;9.960;2023-11-22T07:30:13;101453.53;;;-3.14;100.00
39443;BME280;25147;52.142;9.960;2023-11-22T07:32:46;101532.72;;;-2.88;100.00
39443;BME280;25147;52.142;9.960;2023-11-22T07:35:14;101728.19;;;-1.53;100.00
39443;BME280;25147;52.142;9.960;2023-11-22T07:37:41;101774.97;;;-1.11;100.00
39443;BME280;25147;52.142;9.960;2023-11-22T07:40:09;101670.63;;;-1.73;100.00
39443;BME280;25147;52.142;9.960;2023-11-22T07:42:39;101796.50;;;-0.93;100.00
39443;BME280;25147;52.142;9.960;2023-11-22T07:45:07;101685.34;;;-1.54;100.00
39443;BME280;25147;52.142;9.960;2023-11-22T07:47:39;101499.97;;;-2.62;100.00
39443;BME280;25147;52.142;9.960;2023-11-22T07:50:10;101719.16;;;-1.30;100.00
39443;BME280;25147;52.142;9.960;2023-11-22T07:52:38;101679.94;;;-1.43;100.00
39443;BME280;25147;52.142;9.960;2023-11-22T07:55:09;101432.88;;;-2.86;100.00
39443;BME280;25147;52.142;9.960;2023-11-22T07:57:37;101450.09;;;-2.84;100.00
39443;BME280;25147;52.142;9.960;2023-11-22T08:00:06;101734.16;;;-1.38;100.00
39443;BME280;25147;52.142;9.960;2023-11-22T08:02:34;101714.47;;;-1.37;100.00
39443;BME280;25147;52.142;9.960;2023-11-22T08:05:04;101574.53;;;-1.95;100.00
39443;BME280;25147;52.142;9.960;2023-11-22T08:07:35;101979.97;;;0.39;100.00
39443;BME280;25147;52.142;9.960;2023-11-22T08:10:06;101559.56;;;-2.18;100.00
39443;BME280;25147;52.142;9.960;2023-11-22T08:12:35;101759.28;;;-0.83;100.00
39443;BME280;25147;52.142;9.960;2023-11-22T08:15:04;101699.06;;;-1.05;100.00
39443;BME280;25147;52.142;9.960;2023-11-22T08:17:32;101526.56;;;-2.12;100.00
39443;BME280;25147;52.142;9.960;2023-11-22T08:19:59;101999.34;;;0.67;100.00
39443;BME280;25147;52.142;9.960;2023-11-22T08:22:31;101478.75;;;-2.43;100.00
39443;BME280;25147;52.142;9.960;2023-11-22T08:25:03;101856.22;;;-0.15;100.00
39443;BME280;25147;52.142;9.960;2023-11-22T08:27:30;102010.72;;;0.70;100.00
39443;BME280;25147;52.142;9.960;2023-11-22T08:29:58;101741.47;;;-0.96;100.00
39443;BME280;25147;52.142;9.960;2023-11-22T08:32:30;101726.38;;;-1.07;100.00
39443;BME280;25147;52.142;9.960;2023-11-22T08:34:58;102031.91;;;0.65;100.00
39443;BME280;25147;52.142;9.960;2023-11-22T08:37:25;101666.41;;;-1.56;100.00
39443;BME280;25147;52.142;9.960;2023-11-22T08:39:53;101591.09;;;-2.05;100.00
39443;BME280;25147;52.142;9.960;2023-11-22T08:42:22;101863.97;;;-0.31;100.00
39443;BME280;25147;52.142;9.960;2023-11-22T08:44:50;101647.47;;;-1.75;100.00
39443;BME280;25147;52.142;9.960;2023-11-22T08:47:17;101966.72;;;0.15;100.00
39443;BME280;25147;52.142;9.960;2023-11-22T08:49:44;101840.41;;;-0.55;100.00
39443;BME280;25147;52.142;9.960;2023-11-22T08:52:16;102086.59;;;0.93;100.00
39443;BME280;25147;52.142;9.960;2023-11-22T08:54:44;101666.63;;;-1.52;100.00
39443;BME280;25147;52.142;9.960;2023-11-22T08:57:12;101895.31;;;-0.22;100.00
39443;BME280;25147;52.142;9.960;2023-11-22T08:59:42;101906.13;;;0.05;100.00
39443;BME280;25147;52.142;9.960;2023-11-22T09:02:10;101800.09;;;-0.56;100.00
39443;BME280;25147;52.142;9.960;2023-11-22T09:04:38;101923.94;;;0.35;100.00
39443;BME280;25147;52.142;9.960;2023-11-22T09:07:07;102047.28;;;1.15;100.00
39443;BME280;25147;52.142;9.960;2023-11-22T09:09:36;101636.22;;;-1.28;100.00
39443;BME280;25147;52.142;9.960;2023-11-22T09:12:04;101525.59;;;-1.82;100.00
39443;BME280;25147;52.142;9.960;2023-11-22T09:14:39;101903.69;;;0.25;100.00
39443;BME280;25147;52.142;9.960;2023-11-22T09:17:09;101759.66;;;-0.25;100.00
39443;BME280;25147;52.142;9.960;2023-11-22T09:19:36;101608.91;;;-1.26;100.00
39443;BME280;25147;52.142;9.960;2023-11-22T09:22:04;101873.44;;;0.38;100.00
39443;BME280;25147;52.142;9.960;2023-11-22T09:24:33;102021.69;;;1.38;100.00
39443;BME280;25147;52.142;9.960;2023-11-22T09:27:03;101687.53;;;-0.78;100.00
39443;BME280;25147;52.142;9.960;2023-11-22T09:29:31;101819.69;;;-0.08;100.00
39443;BME280;25147;52.142;9.960;2023-11-22T09:32:00;101534.16;;;-1.48;100.00
39443;BME280;25147;52.142;9.960;2023-11-22T09:34:29;101575.75;;;-1.21;100.00
39443;BME280;25147;52.142;9.960;2023-11-22T09:36:57;101558.09;;;-1.31;100.00
39443;BME280;25147;52.142;9.960;2023-11-22T09:39:24;102035.53;;;1.58;100.00
39443;BME280;25147;52.142;9.960;2023-11-22T09:41:53;101536.63;;;-1.50;100.00
39443;BME280;25147;52.142;9.960;2023-11-22T09:44:21;101643.00;;;-0.77;100.00
39443;BME280;25147;52.142;9.960;2023-11-22T09:46:49;101622.88;;;-0.86;99.63
39443;BME280;25147;52.142;9.960;2023-11-22T09:49:20;102046.22;;;1.66;98.91
39443;BME280;25147;52.142;9.960;2023-11-22T09:51:54;102047.94;;;1.47;98.76
39443;BME280;25147;52.142;9.960;2023-11-22T09:54:22;101879.94;;;0.66;97.67
39443;BME280;25147;52.142;9.960;2023-11-22T09:56:58;101744.59;;;-0.17;98.02
39443;BME280;25147;52.142;9.960;2023-11-22T09:59:30;102016.72;;;1.60;99.07
39443;BME280;25147;52.142;9.960;2023-11-22T10:01:58;101872.66;;;0.75;99.04
39443;BME280;25147;52.142;9.960;2023-11-22T10:04:26;101949.41;;;1.36;97.61
39443;BME280;25147;52.142;9.960;2023-11-22T10:06:58;101699.78;;;-0.21;97.00
39443;BME280;25147;52.142;9.960;2023-11-22T10:09:26;101626.13;;;-0.72;96.62
39443;BME280;25147;52.142;9.960;2023-11-22T10:11:58;102066.03;;;1.85;97.28
39443;BME280;25147;52.142;9.960;2023-11-22T10:14:27;101622.03;;;-0.69;97.41
39443;BME280;25147;52.142;9.960;2023-11-22T10:16:58;101953.44;;;1.31;95.14
39443;BME280;25147;52.142;9.960;2023-11-22T10:19:26;101902.91;;;1.17;95.70
39443;BME280;25147;52.142;9.960;2023-11-22T10:22:05;102046.88;;;1.99;95.72
39443;BME280;25147;52.142;9.960;2023-11-22T10:24:33;102027.44;;;1.88;93.72
39443;BME280;25147;52.142;9.960;2023-11-22T10:27:00;102054.19;;;2.08;93.03
39443;BME280;25147;52.142;9.960;2023-11-22T10:29:27;102016.84;;;1.82;92.71
39443;BME280;25147;52.142;9.960;2023-11-22T10:31:54;101953.50;;;1.51;92.49
39443;BME280;25147;52.142;9.960;2023-11-22T10:34:24;102065.50;;;2.11;92.73
39443;BME280;25147;52.142;9.960;2023-11-22T10:36:51;101884.97;;;1.00;91.32
39443;BME280;25147;52.142;9.960;2023-11-22T10:39:20;102035.63;;;1.59;90.55
39443;BME280;25147;52.142;9.960;2023-11-22T10:41:48;102001.47;;;1.65;91.90
39443;BME280;25147;52.142;9.960;2023-11-22T10:44:20;102026.25;;;1.81;92.17
39443;BME280;25147;52.142;9.960;2023-11-22T10:46:47;102077.50;;;2.29;92.29
39443;BME280;25147;52.142;9.960;2023-11-22T10:49:14;102037.25;;;2.14;90.57
39443;BME280;25147;52.142;9.960;2023-11-22T10:51:42;101945.28;;;1.59;87.62
39443;BME280;25147;52.142;9.960;2023-11-22T10:54:11;101984.69;;;1.94;87.11
39443;BME280;25147;52.142;9.960;2023-11-22T10:56:42;102001.59;;;2.07;85.94
39443;BME280;25147;52.142;9.960;2023-11-22T10:59:13;101833.31;;;0.99;85.62
39443;BME280;25147;52.142;9.960;2023-11-22T11:01:44;101775.97;;;0.66;87.13
39443;BME280;25147;52.142;9.960;2023-11-22T11:04:19;101654.69;;;0.06;85.95
39443;BME280;25147;52.142;9.960;2023-11-22T11:06:51;101813.56;;;0.99;85.76
39443;BME280;25147;52.142;9.960;2023-11-22T11:09:19;101994.34;;;2.18;86.61
39443;BME280;25147;52.142;9.960;2023-11-22T11:11:49;101554.78;;;-0.41;86.28
39443;BME280;25147;52.142;9.960;2023-11-22T11:14:16;101910.84;;;1.59;86.86
39443;BME280;25147;52.142;9.960;2023-11-22T11:16:45;101602.94;;;-0.01;85.60
39443;BME280;25147;52.142;9.960;2023-11-22T11:19:16;101607.09;;;-0.22;85.20
39443;BME280;25147;52.142;9.960;2023-11-22T11:21:47;101684.69;;;0.23;85.41
39443;BME280;25147;52.142;9.960;2023-11-22T11:24:18;101580.25;;;-0.27;85.93
39443;BME280;25147;52.142;9.960;2023-11-22T11:26:49;101912.47;;;1.57;86.50
39443;BME280;25147;52.142;9.960;2023-11-22T11:29:29;101912.59;;;1.60;86.64
39443;BME280;25147;52.142;9.960;2023-11-22T11:31:57;101732.28;;;0.49;86.33
39443;BME280;25147;52.142;9.960;2023-11-22T11:34:47;101617.81;;;-0.13;86.34
39443;BME280;25147;52.142;9.960;2023-11-22T11:37:18;101807.53;;;0.79;87.49
39443;BME280;25147;52.142;9.960;2023-11-22T11:39:45;101994.75;;;1.88;89.11
39443;BME280;25147;52.142;9.960;2023-11-22T11:42:14;101980.13;;;1.89;88.94
39443;BME280;25147;52.142;9.960;2023-11-22T11:44:51;101986.84;;;2.05;88.23
39443;BME280;25147;52.142;9.960;2023-11-22T11:47:27;101946.97;;;1.98;86.97
39443;BME280;25147;52.142;9.960;2023-11-22T11:49:55;101950.69;;;2.05;87.15
39443;BME280;25147;52.142;9.960;2023-11-22T11:52:22;101738.63;;;0.75;87.52
39443;BME280;25147;52.142;9.960;2023-11-22T11:54:51;101789.00;;;1.08;88.50
39443;BME280;25147;52.142;9.960;2023-11-22T11:57:21;101946.94;;;2.17;88.47
39443;BME280;25147;52.142;9.960;2023-11-22T11:59:48;101967.81;;;2.22;86.28
39443;BME280;25147;52.142;9.960;2023-11-22T12:02:16;101664.66;;;0.55;85.81
39443;BME280;25147;52.142;9.960;2023-11-22T12:04:45;101841.88;;;1.56;85.46
39443;BME280;25147;52.142;9.960;2023-11-22T12:07:12;101529.28;;;-0.16;85.30
39443;BME280;25147;52.142;9.960;2023-11-22T12:09:39;101482.63;;;-0.24;86.15
39443;BME280;25147;52.142;9.960;2023-11-22T12:12:06;101857.28;;;2.15;86.77
39443;BME280;25147;52.142;9.960;2023-11-22T12:14:35;101542.56;;;0.51;86.22
39443;BME280;25147;52.142;9.960;2023-11-22T12:17:03;101718.22;;;1.61;85.77
39443;BME280;25147;52.142;9.960;2023-11-22T12:19:31;101734.44;;;1.58;85.26
39443;BME280;25147;52.142;9.960;2023-11-22T12:21:59;101604.84;;;0.82;85.75
39443;BME280;25147;52.142;9.960;2023-11-22T12:24:26;101406.13;;;-0.28;86.32
39443;BME280;25147;52.142;9.960;2023-11-22T12:26:55;101431.38;;;-0.19;86.82
39443;BME280;25147;52.142;9.960;2023-11-22T12:29:23;101685.59;;;1.42;88.19
39443;BME280;25147;52.142;9.960;2023-11-22T12:31:52;101337.22;;;-0.55;89.26
39443;BME280;25147;52.142;9.960;2023-11-22T12:34:22;101583.41;;;0.83;88.81
39443;BME280;25147;52.142;9.960;2023-11-22T12:36:50;101585.84;;;0.79;88.95
39443;BME280;25147;52.142;9.960;2023-11-22T12:39:20;101847.13;;;2.40;88.69
39443;BME280;25147;52.142;9.960;2023-11-22T12:41:49;101569.19;;;0.92;88.04
39443;BME280;25147;52.142;9.960;2023-11-22T12:44:17;101615.31;;;1.27;88.79
39443;BME280;25147;52.142;9.960;2023-11-22T12:46:46;101818.03;;;2.46;89.65
39443;BME280;25147;52.142;9.960;2023-11-22T12:49:16;101803.44;;;2.47;90.10
39443;BME280;25147;52.142;9.960;2023-11-22T12:51:48;101794.06;;;2.28;90.03